Time;durP1;ratioP1;P1;durP2;ratioP2;P2;SDS_P1;SDS_P2;PMS_P1;PMS_P2;Temp;Humidity;BMP_temperature;BMP_pressure;BME280_temperature;BME280_humidity;BME280_pressure;Samples;Min_cycle;Max_cycle;Signal;HPM_P1;HPM_P2
2022/01/06 00:00:09;;;;;;;11.93;1.50;;;;;;;8.47;54.14;100006.75;6214739;22;102137;-74
2022/01/06 00:02:37;;;;;;;10.55;1.85;;;;;;;8.47;53.38;100013.81;6217974;22;99697;-74
2022/01/06 00:05:04;;;;;;;19.92;3.22;;;;;;;8.89;53.38;100014.75;6215704;22;96620;-75
2022/01/06 00:07:31;;;;;;;14.15;1.98;;;;;;;8.26;54.78;100018.94;6216217;22;96716;-75
2022/01/06 00:09:58;;;;;;;7.80;1.58;;;;;;;8.15;54.92;100026.38;6214396;22;99124;-75
2022/01/06 00:12:32;;;;;;;10.52;1.58;;;;;;;8.49;54.08;100030.41;6215702;22;98803;-75
2022/01/06 00:15:05;;;;;;;15.65;2.20;;;;;;;8.95;53.25;100034.72;6214985;22;97217;-74
2022/01/06 00:17:43;;;;;;;11.63;1.75;;;;;;;8.62;53.52;100043.03;6217387;22;96636;-75
2022/01/06 00:23:21;;;;;;;10.43;1.83;;;;;;;8.81;52.25;100045.81;6215333;22;97135;-74
2022/01/06 00:25:48;;;;;;;11.27;1.98;;;;;;;9.20;51.71;100049.47;6214422;22;96625;-75
2022/01/06 00:28:15;;;;;;;12.63;1.60;;;;;;;8.54;53.82;100062.66;6215140;22;96550;-75
2022/01/06 00:30:42;;;;;;;11.98;1.35;;;;;;;8.91;53.81;100055.09;6212793;22;99164;-75
2022/01/06 00:33:09;;;;;;;10.93;2.13;;;;;;;9.08;53.59;100052.63;6213976;22;99276;-75
2022/01/06 00:35:37;;;;;;;7.53;1.33;;;;;;;9.16;54.05;100047.91;6214433;22;96617;-74
2022/01/06 00:38:05;;;;;;;6.38;1.40;;;;;;;9.53;53.46;100055.13;6215091;22;96776;-75
2022/01/06 00:40:32;;;;;;;10.00;1.55;;;;;;;9.58;53.10;100068.97;6214192;22;98989;-76
2022/01/06 00:42:58;;;;;;;11.68;1.52;;;;;;;9.62;53.02;100088.19;6215016;22;99305;-75
2022/01/06 00:45:24;;;;;;;4.85;1.10;;;;;;;8.41;55.99;100091.25;6214481;22;97060;-76
2022/01/06 00:47:51;;;;;;;6.10;0.95;;;;;;;8.00;57.30;100097.97;6216125;22;96742;-76
2022/01/06 00:50:17;;;;;;;2.40;0.60;;;;;;;8.50;56.61;100096.19;6215587;22;97921;-75
2022/01/06 00:52:45;;;;;;;8.50;1.58;;;;;;;8.62;56.33;100105.38;6215736;22;99831;-76
2022/01/06 00:55:11;;;;;;;6.95;1.20;;;;;;;8.08;57.20;100101.19;6214503;22;97087;-76
2022/01/06 00:57:38;;;;;;;8.10;1.00;;;;;;;8.17;56.99;100106.13;6214465;22;97242;-76
2022/01/06 01:00:06;;;;;;;7.97;1.10;;;;;;;8.19;57.65;100122.72;6213358;22;98964;-76
2022/01/06 01:02:33;;;;;;;4.35;1.20;;;;;;;8.07;56.96;100138.09;6212705;22;99227;-75
2022/01/06 01:04:59;;;;;;;7.05;1.48;;;;;;;8.26;56.29;100137.41;6212917;22;97119;-75
2022/01/06 01:07:25;;;;;;;6.72;1.48;;;;;;;8.04;56.96;100143.44;6217483;22;97084;-75
2022/01/06 01:09:53;;;;;;;4.85;1.20;;;;;;;8.08;56.34;100155.56;6215191;22;98924;-76
2022/01/06 01:12:22;;;;;;;13.20;1.98;;;;;;;8.37;56.26;100160.72;6217087;22;99029;-75
2022/01/06 01:14:56;;;;;;;6.97;1.50;;;;;;;7.61;56.31;100172.03;6213997;22;96653;-75
2022/01/06 01:17:25;;;;;;;5.50;1.05;;;;;;;6.69;56.13;100178.41;6214084;22;97144;-77
2022/01/06 01:19:52;;;;;;;4.90;1.13;;;;;;;6.28;56.97;100187.41;6213669;22;99352;-76
2022/01/06 01:22:18;;;;;;;5.57;1.25;;;;;;;6.51;56.30;100186.78;6214392;22;99454;-75
2022/01/06 01:24:45;;;;;;;9.80;1.33;;;;;;;6.45;55.42;100193.97;6213532;22;96952;-75
2022/01/06 01:27:14;;;;;;;2.92;0.90;;;;;;;6.70;53.47;100198.47;6213843;22;96796;-75
2022/01/06 01:29:55;;;;;;;8.27;1.08;;;;;;;6.65;53.34;100203.00;6212711;22;98876;-75
2022/01/06 01:32:27;;;;;;;5.85;1.20;;;;;;;7.05;51.43;100204.50;6213044;22;101151;-75
2022/01/06 01:34:59;;;;;;;7.32;1.52;;;;;;;7.41;50.46;100205.16;6214173;22;96514;-75
2022/01/06 01:37:26;;;;;;;3.67;0.90;;;;;;;7.28;49.32;100215.19;6214887;22;96644;-75
2022/01/06 01:39:52;;;;;;;4.90;0.98;;;;;;;7.48;48.57;100219.81;6213102;22;98270;-75
2022/01/06 01:42:20;;;;;;;6.93;0.90;;;;;;;7.65;48.54;100214.88;6214628;22;99376;-75
2022/01/06 01:44:48;;;;;;;8.45;0.90;;;;;;;7.58;47.25;100208.97;6214697;22;96953;-75
2022/01/06 01:47:15;;;;;;;7.35;1.10;;;;;;;7.89;47.73;100227.25;6213909;22;97057;-74
2022/01/06 01:49:49;;;;;;;8.73;1.58;;;;;;;7.81;47.00;100228.41;6212384;22;99340;-75
2022/01/06 01:52:15;;;;;;;6.38;0.98;;;;;;;8.09;46.52;100220.44;6213311;22;99202;-75
2022/01/06 01:54:42;;;;;;;4.82;1.17;;;;;;;7.79;47.47;100224.97;6215045;22;97102;-74
2022/01/06 01:57:08;;;;;;;5.13;1.15;;;;;;;8.02;47.08;100238.22;6215839;22;96736;-74
2022/01/06 01:59:36;;;;;;;6.18;1.10;;;;;;;8.21;46.66;100241.94;6211989;22;99261;-75
2022/01/06 02:02:02;;;;;;;5.53;1.20;;;;;;;8.30;46.15;100238.16;6213214;22;98856;-75
2022/01/06 02:04:28;;;;;;;4.90;1.17;;;;;;;8.33;46.52;100240.72;6212407;22;97104;-74
2022/01/06 02:06:55;;;;;;;7.03;1.20;;;;;;;8.13;46.34;100244.00;6216202;22;97109;-74
2022/01/06 02:09:21;;;;;;;2.78;0.75;;;;;;;8.06;46.40;100247.75;6214776;22;99188;-75
2022/01/06 02:11:48;;;;;;;5.78;0.88;;;;;;;7.97;47.27;100250.66;6214056;22;99239;-74
2022/01/06 02:14:14;;;;;;;4.47;0.90;;;;;;;8.18;46.88;100247.34;6215233;22;96745;-76
2022/01/06 02:16:42;;;;;;;6.63;1.33;;;;;;;7.67;47.82;100263.03;6216199;22;96781;-75
2022/01/06 02:19:08;;;;;;;7.72;1.15;;;;;;;7.81;47.66;100258.19;6214428;22;99536;-76
2022/01/06 02:21:40;;;;;;;3.58;0.93;;;;;;;7.96;46.94;100265.59;6215675;22;99557;-75
2022/01/06 02:24:07;;;;;;;8.45;1.20;;;;;;;7.98;47.19;100273.44;6220919;22;96573;-75
2022/01/06 02:26:34;;;;;;;4.50;1.27;;;;;;;8.30;46.45;100285.53;6214984;22;96748;-75
2022/01/06 02:29:00;;;;;;;3.92;0.70;;;;;;;7.77;47.23;100296.03;6214507;22;99540;-75
2022/01/06 02:31:27;;;;;;;5.43;1.00;;;;;;;7.97;47.06;100295.41;6213706;22;99552;-74
2022/01/06 02:33:54;;;;;;;5.00;1.10;;;;;;;8.15;46.89;100294.78;6215336;22;97256;-74
2022/01/06 02:36:20;;;;;;;3.83;1.10;;;;;;;7.78;46.56;100292.50;6214940;22;96929;-74
2022/01/06 02:38:48;;;;;;;6.10;0.77;;;;;;;7.36;48.03;100309.53;6214887;22;99236;-75
2022/01/06 02:41:15;;;;;;;7.88;1.23;;;;;;;8.01;47.27;100312.78;6213169;22;99111;-75
2022/01/06 02:43:41;;;;;;;3.47;0.80;;;;;;;8.08;46.10;100329.25;6215963;22;96833;-75
2022/01/06 02:46:09;;;;;;;7.00;1.30;;;;;;;8.22;46.45;100327.03;6215291;22;97259;-75
2022/01/06 02:48:36;;;;;;;5.75;1.17;;;;;;;7.96;46.76;100338.41;6215934;22;99776;-75
2022/01/06 02:51:02;;;;;;;3.83;1.10;;;;;;;8.00;47.32;100347.94;6214063;22;99384;-75
2022/01/06 02:53:28;;;;;;;4.70;1.15;;;;;;;7.95;47.22;100353.31;6224098;22;96982;-75
2022/01/06 02:55:56;;;;;;;3.50;1.00;;;;;;;7.50;48.13;100357.31;6227913;22;97215;-75
2022/01/06 02:58:22;;;;;;;5.57;0.88;;;;;;;7.97;47.54;100363.81;6233980;22;97907;-75
2022/01/06 03:00:50;;;;;;;5.03;1.13;;;;;;;7.97;47.40;100367.28;6222163;22;99320;-74
2022/01/06 03:03:16;;;;;;;7.43;1.17;;;;;;;7.77;46.62;100367.03;6224776;22;96973;-74
2022/01/06 03:05:43;;;;;;;4.07;1.10;;;;;;;7.17;46.75;100369.66;6222255;22;97029;-74
2022/01/06 03:08:09;;;;;;;4.28;1.02;;;;;;;7.03;47.66;100385.78;6223979;22;99063;-74
2022/01/06 03:10:41;;;;;;;4.55;0.90;;;;;;;7.10;46.75;100383.88;6222647;22;98156;-73
2022/01/06 03:13:09;;;;;;;6.65;1.30;;;;;;;7.07;46.86;100394.47;6222635;22;96604;-73
2022/01/06 03:15:35;;;;;;;4.50;1.10;;;;;;;7.01;46.41;100405.16;6223331;22;96676;-74
2022/01/06 03:18:01;;;;;;;6.40;1.00;;;;;;;7.14;46.50;100411.78;6223466;22;99190;-75
2022/01/06 03:20:29;;;;;;;4.80;1.13;;;;;;;7.43;45.90;100419.72;6223654;22;101195;-75
2022/01/06 03:22:56;;;;;;;3.58;0.90;;;;;;;7.37;45.61;100424.31;6227913;22;96665;-76
2022/01/06 03:25:23;;;;;;;3.53;0.85;;;;;;;6.63;46.55;100432.38;6224624;22;96761;-75
2022/01/06 03:27:50;;;;;;;7.55;0.95;;;;;;;6.89;45.10;100440.47;6220340;22;101752;-76
2022/01/06 03:30:19;;;;;;;5.28;1.33;;;;;;;6.05;46.65;100448.56;6221397;22;99582;-74
2022/01/06 03:32:46;;;;;;;7.28;0.82;;;;;;;5.64;47.01;100450.28;6218730;22;96645;-74
2022/01/06 03:35:15;;;;;;;4.97;0.63;;;;;;;5.36;47.49;100457.81;6218443;22;96740;-74
2022/01/06 03:37:42;;;;;;;9.20;0.85;;;;;;;5.61;46.72;100463.44;6220505;22;99146;-75
2022/01/06 03:40:10;;;;;;;2.15;0.60;;;;;;;5.84;47.23;100461.22;6219891;22;99191;-73
2022/01/06 03:42:37;;;;;;;5.00;1.23;;;;;;;5.80;45.99;100472.66;6221174;22;96750;-74
2022/01/06 03:45:06;;;;;;;5.18;0.80;;;;;;;5.93;46.20;100468.94;6222703;22;96753;-73
2022/01/06 03:48:00;;;;;;;;;;;;;;;;;;;;;
2022/01/06 03:50:44;;;;;;;;;;;;;;;;;;;;;
2022/01/06 03:53:36;;;;;;;5.75;0.73;;;;;;;5.86;46.31;100500.53;6208179;22;114114;-78
2022/01/06 03:56:17;;;;;;;11.13;0.65;;;;;;;5.30;46.98;100506.84;6031211;23;97252;-78
2022/01/06 03:59:16;;;;;;;;;;;;;;;;;;;;;
2022/01/06 06:07:45;;;;;;;;;;;;;;;;;;;;;
2022/01/06 06:10:30;;;;;;;10.20;1.00;;;;;;;5.23;46.46;100765.44;6183860;22;113397;-77
2022/01/06 06:18:43;;;;;;;3.42;1.13;;;;;;;6.00;46.28;100774.78;6180031;22;98623;-78
2022/01/06 06:21:17;;;;;;;6.75;0.98;;;;;;;5.65;46.64;100784.91;6183435;22;96602;-78
2022/01/06 06:23:54;;;;;;;;;;;;;;;;;;;;;
2022/01/06 06:26:54;;;;;;;6.85;1.20;;;;;;;5.69;47.07;100804.13;6175504;22;128190;-78
2022/01/06 06:29:29;;;;;;;7.13;1.20;;;;;;;5.83;47.27;100800.41;6107752;22;97656;-77
2022/01/06 06:32:13;;;;;;;;;;;;;;;;;;;;;
2022/01/06 06:34:54;;;;;;;;;;;;;;;;;;;;;
2022/01/06 06:37:54;;;;;;;;;;;;;;;;;;;;;
2022/01/06 06:54:54;;;;;;;;;;;;;;;;;;;;;
2022/01/06 06:57:37;;;;;;;;;;;;;;;;;;;;;
2022/01/06 07:00:35;;;;;;;9.35;1.42;;;;;;;5.20;50.66;100863.28;6170965;22;111942;-79
2022/01/06 07:03:17;;;;;;;;;;;;;;;;;;;;;
2022/01/06 07:06:29;;;;;;;;;;;;;;;;;;;;;
2022/01/06 07:09:32;;;;;;;7.22;1.40;;;;;;;5.29;50.44;100882.41;5995659;23;111927;-77
2022/01/06 15:52:43;;;;;;;5.65;1.67;;;;;;;8.00;39.60;101471.59;6186313;22;97193;-77
2022/01/06 15:57:54;;;;;;;7.32;1.67;;;;;;;7.91;39.52;101471.72;6176514;22;96628;-78
2022/01/06 16:06:38;;;;;;;9.60;1.27;;;;;;;8.02;39.76;101467.16;6067016;22;96982;-78
2022/01/06 16:09:10;;;;;;;5.53;1.65;;;;;;;7.97;39.73;101476.88;6186608;22;97185;-78
2022/01/06 21:14:35;;;;;;;;;;;;;;;;;;;;;
2022/01/06 21:46:45;;;;;;;15.13;5.70;;;;;;;6.14;52.70;101524.13;6217437;22;97112;-75
2022/01/06 21:49:12;;;;;;;16.75;5.57;;;;;;;6.22;52.67;101517.97;6217655;22;96651;-76
2022/01/06 21:51:39;;;;;;;17.98;5.95;;;;;;;6.16;52.45;101514.50;6227301;22;98895;-77
2022/01/06 21:54:06;;;;;;;17.40;5.75;;;;;;;6.18;52.70;101510.97;6225570;22;97079;-77
2022/01/06 21:56:33;;;;;;;15.90;5.95;;;;;;;6.24;52.63;101513.56;6220801;22;97024;-76
2022/01/06 21:58:59;;;;;;;12.88;5.90;;;;;;;6.29;52.42;101513.56;6189272;22;96936;-78
2022/01/06 22:01:26;;;;;;;17.75;5.88;;;;;;;6.22;52.60;101509.22;6188057;22;98850;-77
2022/01/06 22:03:54;;;;;;;21.77;6.53;;;;;;;6.34;52.37;101510.00;6189693;22;97630;-77
2022/01/06 22:06:21;;;;;;;23.38;6.82;;;;;;;6.20;52.13;101505.72;6185606;22;96555;-78
2022/01/06 22:08:47;;;;;;;28.98;8.27;;;;;;;6.21;52.41;101517.97;6185228;22;97108;-77
2022/01/06 22:11:14;;;;;;;22.77;6.65;;;;;;;6.22;52.04;101519.72;6183990;22;98704;-78
2022/01/06 22:13:41;;;;;;;20.52;6.60;;;;;;;6.29;51.96;101519.69;6185142;22;99024;-76
2022/01/06 22:16:07;;;;;;;23.23;5.68;;;;;;;6.31;52.68;101527.50;6185486;22;96866;-78
2022/01/06 22:18:34;;;;;;;13.57;5.97;;;;;;;6.30;52.26;101520.56;6184272;22;96757;-77
2022/01/06 22:21:02;;;;;;;18.40;6.03;;;;;;;6.14;52.39;101521.50;6183886;22;98882;-77
2022/01/06 22:23:29;;;;;;;13.35;5.90;;;;;;;6.25;52.41;101517.94;6182236;22;99145;-77
2022/01/06 22:25:55;;;;;;;19.75;6.25;;;;;;;6.20;52.34;101519.72;6183927;22;97295;-77
2022/01/06 22:28:22;;;;;;;18.88;5.93;;;;;;;6.13;52.80;101511.88;6190869;22;97143;-76
2022/01/06 22:30:48;;;;;;;19.60;5.63;;;;;;;5.87;52.80;101509.34;6189442;22;97737;-77
2022/01/06 22:33:18;;;;;;;14.75;5.90;;;;;;;5.92;53.06;101507.59;6184847;22;99134;-78
2022/01/06 22:35:46;;;;;;;19.10;5.70;;;;;;;5.87;53.09;101518.13;6183834;22;96651;-77
2022/01/06 22:38:14;;;;;;;16.15;5.45;;;;;;;6.03;52.59;101518.06;6186538;22;96794;-79
2022/01/06 22:40:41;;;;;;;18.05;5.65;;;;;;;6.09;52.52;101524.16;6186514;22;99223;-77
2022/01/06 22:43:10;;;;;;;16.45;5.95;;;;;;;5.99;52.97;101511.94;6188149;22;98917;-77
2022/01/06 22:45:37;;;;;;;22.65;5.88;;;;;;;6.08;52.49;101509.28;6187880;22;96669;-78
2022/01/06 22:48:04;;;;;;;18.80;6.20;;;;;;;6.04;52.25;101504.91;6185429;22;96804;-76
2022/01/06 22:50:32;;;;;;;20.02;5.97;;;;;;;6.09;52.36;101504.91;6185968;22;99102;-76
2022/01/06 22:52:59;;;;;;;14.10;6.20;;;;;;;6.11;52.05;101503.13;6188200;22;98680;-77
2022/01/06 22:55:28;;;;;;;13.93;5.38;;;;;;;6.14;52.25;101500.50;6161442;22;96616;-78
2022/01/06 22:57:55;;;;;;;13.90;5.30;;;;;;;6.23;51.80;101505.72;6157669;22;96764;-77
2022/01/06 23:00:24;;;;;;;19.10;5.03;;;;;;;5.95;52.17;101510.22;6153941;22;99867;-78
2022/01/06 23:02:51;;;;;;;25.10;5.25;;;;;;;6.04;51.68;101504.91;6154304;22;98905;-78
2022/01/06 23:05:17;;;;;;;20.17;6.45;;;;;;;5.97;52.16;101513.72;6154288;22;97073;-77
2022/01/06 23:07:45;;;;;;;16.80;5.32;;;;;;;6.07;51.83;101510.16;6155153;22;96797;-78
2022/01/06 23:10:12;;;;;;;16.60;5.10;;;;;;;6.18;51.84;101508.34;6153865;22;99202;-77
2022/01/06 23:12:40;;;;;;;10.82;4.53;;;;;;;6.02;52.00;101504.06;6153429;22;98917;-77
2022/01/06 23:15:08;;;;;;;16.80;4.88;;;;;;;6.10;51.46;101507.53;6154514;22;96965;-77
2022/01/06 23:17:35;;;;;;;14.15;5.13;;;;;;;6.05;51.79;101508.41;6155899;22;96750;-77
2022/01/06 23:20:03;;;;;;;21.48;4.88;;;;;;;6.20;51.87;101506.59;6153950;22;101168;-77
2022/01/06 23:22:29;;;;;;;19.50;5.38;;;;;;;6.26;51.52;101505.69;6156981;22;99297;-78
2022/01/06 23:24:56;;;;;;;13.02;4.40;;;;;;;6.12;51.53;101503.13;6155730;22;96648;-78
2022/01/06 23:27:23;;;;;;;23.63;4.88;;;;;;;6.00;51.50;101497.94;6164618;22;96761;-77
2022/01/06 23:29:51;;;;;;;15.80;4.57;;;;;;;5.88;51.96;101501.50;6159060;22;99150;-78
2022/01/06 23:32:18;;;;;;;21.88;4.75;;;;;;;5.70;51.81;101509.44;6155277;22;101329;-77
2022/01/06 23:34:45;;;;;;;22.08;4.72;;;;;;;5.84;52.12;101504.97;6155763;22;96583;-77
2022/01/06 23:37:11;;;;;;;17.33;4.80;;;;;;;5.69;51.89;101510.31;6156621;22;96809;-77
2022/01/06 23:39:38;;;;;;;17.33;4.68;;;;;;;5.49;53.04;101505.13;6158144;22;98821;-78
2022/01/06 23:42:05;;;;;;;13.93;4.05;;;;;;;5.56;52.29;101504.22;6156602;22;99171;-77
2022/01/06 23:44:32;;;;;;;19.23;4.57;;;;;;;5.71;52.59;101505.06;6155899;22;96555;-76
2022/01/06 23:47:00;;;;;;;26.90;5.00;;;;;;;5.88;51.86;101500.63;6155622;22;96732;-77
2022/01/06 23:49:28;;;;;;;15.80;3.88;;;;;;;5.93;51.38;101502.34;6157500;22;99406;-78
2022/01/06 23:51:54;;;;;;;23.52;4.35;;;;;;;5.88;51.89;101498.88;6157167;22;97841;-77
2022/01/06 23:54:21;;;;;;;18.83;4.65;;;;;;;5.95;51.13;101487.50;6155218;22;98190;-77
2022/01/06 23:56:47;;;;;;;23.58;4.78;;;;;;;6.09;50.67;101482.19;6153771;22;96885;-77
2022/01/06 23:59:14;;;;;;;20.60;4.57;;;;;;;5.89;50.80;101484.03;6154756;22;98910;-78
